Time,TemperatureF,DewpointF,PressureIn,WindDirection,WindDirectionDegrees,WindSpeedMPH,WindSpeedGustMPH,Humidity,HourlyPrecipIn,Conditions,Clouds,dailyrainin,SolarRadiationWatts/m^2,SoftwareType,DateUTC
2013-05-10 00:03:00,66.0,63.0,-100.00,ENE,62,0.0,0.0,89,0.00,,,0.00,0.000000,,2013-05-10 04:03:00,
2013-05-10 00:11:00,63.0,61.0,-100.00,SE,130,0.0,2.0,92,0.00,,,0.00,0.000000,,2013-05-10 04:11:00,
2013-05-10 00:33:00,63.0,61.0,-100.00,SE,130,0.0,2.0,92,0.00,,,0.00,0.000000,,2013-05-10 04:33:00,
2013-05-10 00:43:00,63.0,61.0,-100.00,SE,130,0.0,2.0,92,0.00,,,0.00,0.000000,,2013-05-10 04:43:00,
2013-05-10 00:53:00,63.0,61.0,-100.00,SE,130,0.0,2.0,92,0.00,,,0.00,0.000000,,2013-05-10 04:53:00,
2013-05-10 01:02:00,63.0,61.0,-100.00,SE,130,0.0,2.0,92,0.00,,,0.00,0.000000,,2013-05-10 05:02:00,
2013-05-10 01:11:00,62.0,60.0,-100.00,WSW,250,0.0,3.0,94,0.00,,,0.00,0.000000,,2013-05-10 05:11:00,
2013-05-10 01:32:00,62.0,60.0,-100.00,WSW,250,0.0,3.0,94,0.00,,,0.00,0.000000,,2013-05-10 05:32:00,
2013-05-10 01:42:00,62.0,60.0,-100.00,WSW,250,0.0,3.0,94,0.00,,,0.00,0.000000,,2013-05-10 05:42:00,
2013-05-10 01:52:00,62.0,60.0,-100.00,WSW,250,0.0,3.0,94,0.00,,,0.00,0.000000,,2013-05-10 05:52:00,
2013-05-10 02:02:00,62.0,60.0,-100.00,WSW,250,0.0,3.0,94,0.00,,,0.00,0.000000,,2013-05-10 06:02:00,
2013-05-10 02:11:00,61.0,59.0,-100.00,West,267,1.0,2.0,94,0.00,,,0.00,0.000000,,2013-05-10 06:11:00,
2013-05-10 02:42:00,61.0,59.0,-100.00,West,267,1.0,2.0,94,0.00,,,0.00,0.000000,,2013-05-10 06:42:00,
2013-05-10 02:52:00,61.0,59.0,-100.00,West,267,1.0,2.0,94,0.00,,,0.00,0.000000,,2013-05-10 06:52:00,
2013-05-10 03:02:00,61.0,59.0,-100.00,West,267,1.0,2.0,94,0.00,,,0.00,0.000000,,2013-05-10 07:02:00,
2013-05-10 04:11:00,60.0,59.0,-100.00,SE,130,1.0,2.0,95,-99.99,,,0.00,0.000000,,2013-05-10 08:11:00,
2013-05-10 04:42:00,60.0,59.0,-100.00,SE,130,1.0,2.0,95,-99.99,,,0.00,0.000000,,2013-05-10 08:42:00,
2013-05-10 04:52:00,60.0,59.0,-100.00,SE,130,1.0,2.0,95,-99.99,,,0.00,0.000000,,2013-05-10 08:52:00,
2013-05-10 05:02:00,60.0,59.0,-100.00,SE,130,1.0,2.0,95,-99.99,,,0.00,0.000000,,2013-05-10 09:02:00,
2013-05-10 05:11:00,59.0,58.0,-100.00,SSE,164,0.0,2.0,96,0.00,,,0.00,0.000000,,2013-05-10 09:11:00,
2013-05-10 05:33:00,59.0,58.0,-100.00,SSE,164,0.0,2.0,96,0.00,,,0.00,0.000000,,2013-05-10 09:33:00,
2013-05-10 05:43:00,59.0,58.0,-100.00,SSE,164,0.0,2.0,96,0.00,,,0.00,0.000000,,2013-05-10 09:43:00,
2013-05-10 05:53:00,59.0,58.0,-100.00,SSE,164,0.0,2.0,96,0.00,,,0.00,0.000000,,2013-05-10 09:53:00,
2013-05-10 06:03:00,59.0,58.0,-100.00,SSE,164,0.0,2.0,96,0.00,,,0.00,0.000000,,2013-05-10 10:03:00,
2013-05-10 06:11:00,59.0,58.0,-100.00,East,86,0.0,1.0,96,0.00,,,0.00,0.000000,,2013-05-10 10:11:00,
2013-05-10 06:33:00,59.0,58.0,-100.00,East,86,0.0,1.0,96,0.00,,,0.00,0.000000,,2013-05-10 10:33:00,
2013-05-10 06:42:00,59.0,58.0,-100.00,East,86,0.0,1.0,96,0.00,,,0.00,0.000000,,2013-05-10 10:42:00,
2013-05-10 06:53:00,59.0,58.0,-100.00,East,86,0.0,1.0,96,0.00,,,0.00,0.000000,,2013-05-10 10:53:00,
2013-05-10 07:02:00,59.0,58.0,-100.00,East,86,0.0,1.0,96,0.00,,,0.00,0.000000,,2013-05-10 11:02:00,
2013-05-10 09:11:00,76.0,70.0,-100.00,ENE,77,3.0,6.0,82,-99.99,,,0.00,109.000000,,2013-05-10 13:11:00,
2013-05-10 09:42:00,76.0,70.0,-100.00,ENE,77,3.0,6.0,82,-99.99,,,0.00,109.000000,,2013-05-10 13:42:00,
2013-05-10 09:52:00,76.0,70.0,-100.00,ENE,77,3.0,6.0,82,-99.99,,,0.00,109.000000,,2013-05-10 13:52:00,
2013-05-10 10:02:00,76.0,70.0,-100.00,ENE,77,3.0,6.0,82,-99.99,,,0.00,109.000000,,2013-05-10 14:02:00,
2013-05-10 10:11:00,-999.0,-99.9,-100.00,ESE,112,3.0,7.0,65,0.00,,,0.00,474.000000,,2013-05-10 14:11:00,
2013-05-10 10:42:00,84.0,71.0,-100.00,ESE,112,3.0,7.0,65,0.00,,,0.00,474.000000,,2013-05-10 14:42:00,
2013-05-10 10:52:00,84.0,71.0,-100.00,ESE,112,3.0,7.0,65,0.00,,,0.00,474.000000,,2013-05-10 14:52:00,
2013-05-10 11:02:00,84.0,71.0,-100.00,ESE,112,3.0,7.0,65,0.00,,,0.00,474.000000,,2013-05-10 15:02:00,
2013-05-10 12:11:00,89.0,69.0,-100.00,ESE,117,3.0,9.0,52,-99.99,,,0.00,555.000000,,2013-05-10 16:11:00,
2013-05-10 12:43:00,89.0,69.0,-100.00,ESE,117,3.0,9.0,52,-99.99,,,0.00,555.000000,,2013-05-10 16:43:00,
2013-05-10 12:53:00,89.0,69.0,-100.00,ESE,117,3.0,9.0,52,-99.99,,,0.00,555.000000,,2013-05-10 16:53:00,
2013-05-10 13:02:00,89.0,69.0,-100.00,ESE,117,3.0,9.0,52,-99.99,,,0.00,555.000000,,2013-05-10 17:02:00,
2013-05-10 13:11:00,-999.0,-99.9,-100.00,ESE,103,3.0,9.0,50,0.00,,,0.00,624.000000,,2013-05-10 17:11:00,
2013-05-10 13:42:00,90.0,69.0,-100.00,ESE,103,3.0,9.0,50,0.00,,,0.00,624.000000,,2013-05-10 17:42:00,
2013-05-10 13:52:00,90.0,69.0,-100.00,ESE,103,3.0,9.0,50,0.00,,,0.00,624.000000,,2013-05-10 17:52:00,
2013-05-10 14:11:00,91.0,67.0,-100.00,South,176,4.0,9.0,45,0.00,,,0.00,653.000000,,2013-05-10 18:11:00,
2013-05-10 14:43:00,91.0,67.0,-100.00,South,176,4.0,9.0,45,0.00,,,0.00,653.000000,,2013-05-10 18:43:00,
2013-05-10 14:54:00,91.0,67.0,-100.00,South,176,4.0,9.0,45,0.00,,,0.00,653.000000,,2013-05-10 18:54:00,
2013-05-10 15:02:00,91.0,67.0,-100.00,South,176,4.0,9.0,45,0.00,,,0.00,653.000000,,2013-05-10 19:02:00,
2013-05-10 15:11:00,93.0,65.0,-100.00,SW,223,4.0,13.0,40,0.00,,,-99.99,853.000000,,2013-05-10 19:11:00,
2013-05-10 15:42:00,93.0,65.0,-100.00,SW,223,4.0,13.0,40,0.00,,,-99.99,853.000000,,2013-05-10 19:42:00,
2013-05-10 15:52:00,93.0,65.0,-100.00,SW,223,4.0,13.0,40,0.00,,,-99.99,853.000000,,2013-05-10 19:52:00,
2013-05-10 16:02:00,93.0,65.0,-100.00,SW,223,4.0,13.0,40,0.00,,,-99.99,853.000000,,2013-05-10 20:02:00,
2013-05-10 16:11:00,93.0,65.0,-100.00,SW,236,6.0,13.0,40,0.00,,,0.00,731.000000,,2013-05-10 20:11:00,
2013-05-10 16:42:00,93.0,65.0,-100.00,SW,236,6.0,13.0,40,0.00,,,0.00,731.000000,,2013-05-10 20:42:00,
2013-05-10 16:52:00,93.0,65.0,-100.00,SW,236,6.0,13.0,40,0.00,,,0.00,731.000000,,2013-05-10 20:52:00,
2013-05-10 17:02:00,93.0,65.0,-100.00,SW,236,6.0,13.0,40,0.00,,,0.00,731.000000,,2013-05-10 21:02:00,
2013-05-10 18:11:00,89.0,67.0,-100.00,SW,219,5.0,11.0,49,-99.99,,,0.00,329.000000,,2013-05-10 22:11:00,
2013-05-10 18:42:00,89.0,67.0,-100.00,SW,219,5.0,11.0,49,-99.99,,,0.00,329.000000,,2013-05-10 22:42:00,
2013-05-10 18:53:00,89.0,67.0,-100.00,SW,219,5.0,11.0,49,-99.99,,,0.00,329.000000,,2013-05-10 22:53:00,
2013-05-10 19:02:00,89.0,67.0,-100.00,SW,219,5.0,11.0,49,-99.99,,,0.00,329.000000,,2013-05-10 23:02:00,
2013-05-10 19:11:00,80.0,68.0,-100.00,ENE,59,3.0,10.0,66,0.00,,,0.00,177.000000,,2013-05-10 23:11:00,
2013-05-10 19:33:00,80.0,68.0,-100.00,ENE,59,3.0,10.0,66,0.00,,,0.00,177.000000,,2013-05-10 23:33:00,
2013-05-10 19:42:00,80.0,68.0,-100.00,ENE,59,3.0,10.0,66,0.00,,,0.00,177.000000,,2013-05-10 23:42:00,
2013-05-10 19:52:00,80.0,68.0,-100.00,ENE,59,3.0,10.0,66,0.00,,,0.00,177.000000,,2013-05-10 23:52:00,
2013-05-10 20:02:00,80.0,68.0,-100.00,ENE,59,3.0,10.0,66,0.00,,,0.00,177.000000,,2013-05-11 00:02:00,
2013-05-10 21:11:00,71.0,68.0,-100.00,ESE,110,0.0,0.0,89,-99.99,,,0.00,0.000000,,2013-05-11 01:11:00,
2013-05-10 21:32:00,71.0,68.0,-100.00,ESE,110,0.0,0.0,89,-99.99,,,0.00,0.000000,,2013-05-11 01:32:00,
2013-05-10 21:42:00,71.0,68.0,-100.00,ESE,110,0.0,0.0,89,-99.99,,,0.00,0.000000,,2013-05-11 01:42:00,
2013-05-10 21:52:00,71.0,68.0,-100.00,ESE,110,0.0,0.0,89,-99.99,,,0.00,0.000000,,2013-05-11 01:52:00,
2013-05-10 22:02:00,71.0,68.0,-100.00,ESE,110,0.0,0.0,89,-99.99,,,0.00,0.000000,,2013-05-11 02:02:00,
2013-05-10 22:11:00,70.0,68.0,-100.00,ENE,64,0.0,3.0,92,0.00,,,0.00,0.000000,,2013-05-11 02:11:00,
2013-05-10 22:42:00,70.0,68.0,-100.00,ENE,64,0.0,3.0,92,0.00,,,0.00,0.000000,,2013-05-11 02:42:00,
2013-05-10 22:52:00,70.0,68.0,-100.00,ENE,64,0.0,3.0,92,0.00,,,0.00,0.000000,,2013-05-11 02:52:00,
2013-05-10 23:01:00,70.0,68.0,-100.00,ENE,64,0.0,3.0,92,0.00,,,0.00,0.000000,,2013-05-11 03:01:00,
2013-05-10 23:11:00,69.0,67.0,-100.00,East,97,0.0,0.0,94,0.00,,,0.00,0.000000,,2013-05-11 03:11:00,
2013-05-10 23:43:00,69.0,67.0,-100.00,East,97,0.0,0.0,94,0.00,,,0.00,0.000000,,2013-05-11 03:43:00,
2013-05-10 23:53:00,69.0,67.0,-100.00,East,97,0.0,0.0,94,0.00,,,0.00,0.000000,,2013-05-11 03:53:00,